createdAt,value
2023-05-09T00:01:17.577Z,8.30
2023-05-09T00:06:19.739Z,5.67
2023-05-09T00:11:22.214Z,6.13
2023-05-09T00:16:24.196Z,7.13
2023-05-09T00:21:25.991Z,7.00
2023-05-09T00:26:27.860Z,7.63
2023-05-09T00:31:29.521Z,9.53
2023-05-09T00:36:32.163Z,9.60
2023-05-09T00:41:33.864Z,9.17
2023-05-09T00:46:36.008Z,8.63
2023-05-09T00:51:39.514Z,6.53
2023-05-09T00:56:41.329Z,8.77
2023-05-09T01:01:42.957Z,9.47
2023-05-09T01:06:59.817Z,9.70
2023-05-09T01:12:43.697Z,7.60
2023-05-09T01:17:58.256Z,9.60
2023-05-09T01:23:21.839Z,7.83
2023-05-09T01:28:36.817Z,8.73
2023-05-09T01:33:40.856Z,9.00
2023-05-09T01:38:44.476Z,7.50
2023-05-09T01:43:46.887Z,11.00
2023-05-09T01:48:50.648Z,9.47
2023-05-09T01:53:52.848Z,9.97
2023-05-09T01:58:56.042Z,8.13
2023-05-09T02:03:57.707Z,10.20
2023-05-09T02:09:01.831Z,8.20
2023-05-09T02:14:04.967Z,10.43
2023-05-09T02:19:06.713Z,8.53
2023-05-09T02:24:08.395Z,10.90
2023-05-09T02:29:10.805Z,9.43
2023-05-09T02:34:13.938Z,7.83
2023-05-09T02:39:16.099Z,6.67
2023-05-09T02:44:17.735Z,7.87
2023-05-09T02:49:31.346Z,7.30
2023-05-09T02:54:35.024Z,7.93
2023-05-09T02:59:36.810Z,7.93
2023-05-09T03:04:38.417Z,7.10
2023-05-09T03:09:41.299Z,7.87
2023-05-09T03:14:43.466Z,8.43
2023-05-09T03:19:45.128Z,6.43
2023-05-09T03:24:46.795Z,7.83
2023-05-09T03:29:48.392Z,9.23
2023-05-09T03:34:51.866Z,8.77
2023-05-09T03:39:53.559Z,9.33
2023-05-09T03:44:55.741Z,8.40
2023-05-09T03:49:57.604Z,9.67
2023-05-09T03:54:59.305Z,7.13
2023-05-09T04:00:01.882Z,9.00
2023-05-09T04:05:04.118Z,8.77
2023-05-09T04:10:06.889Z,8.17
2023-05-09T04:15:09.191Z,7.83
2023-05-09T04:20:11.663Z,7.10
2023-05-09T04:25:14.956Z,7.60
2023-05-09T04:30:17.461Z,7.70
2023-05-09T04:35:20.853Z,7.90
2023-05-09T04:40:26.633Z,6.70
2023-05-09T04:45:33.794Z,7.63
2023-05-09T04:50:36.780Z,9.30
2023-05-09T04:55:38.484Z,6.70
2023-05-09T05:00:40.250Z,9.80
2023-05-09T05:05:43.208Z,8.53
2023-05-09T05:10:44.905Z,12.20
2023-05-09T05:15:48.811Z,7.03
2023-05-09T05:20:51.026Z,8.90
2023-05-09T05:25:53.139Z,10.03
2023-05-09T05:30:54.867Z,8.37
2023-05-09T05:35:56.525Z,6.67
2023-05-09T05:40:58.332Z,9.23
2023-05-09T05:46:01.710Z,6.50
2023-05-09T05:51:05.020Z,7.33
2023-05-09T05:56:07.514Z,7.37
2023-05-09T06:01:09.554Z,9.00
2023-05-09T06:06:11.372Z,7.20
2023-05-09T06:11:13.233Z,6.97
2023-05-09T06:16:19.613Z,7.50
2023-05-09T06:21:24.199Z,6.50
2023-05-09T06:26:26.285Z,7.20
2023-05-09T06:31:28.772Z,8.03
2023-05-09T06:36:30.706Z,6.33
2023-05-09T06:41:32.298Z,4.77
2023-05-09T06:46:33.975Z,3.77
2023-05-09T06:51:35.814Z,4.77
2023-05-09T06:56:37.427Z,4.00
2023-05-09T07:01:42.454Z,3.57
2023-05-09T07:06:44.463Z,3.60
2023-05-09T07:11:46.746Z,3.10
2023-05-09T07:16:48.486Z,3.43
2023-05-09T07:21:50.166Z,3.30
2023-05-09T07:26:51.789Z,3.23
2023-05-09T07:31:53.387Z,3.03
2023-05-09T07:36:55.109Z,4.13
2023-05-09T07:41:56.700Z,2.90
2023-05-09T07:47:02.482Z,3.17
2023-05-09T07:52:04.542Z,3.20
2023-05-09T07:57:06.173Z,2.77
2023-05-09T08:02:08.719Z,2.70
2023-05-09T08:07:11.905Z,2.70
2023-05-09T08:12:13.893Z,2.87
2023-05-09T08:17:16.225Z,3.20
2023-05-09T08:22:18.846Z,2.33
2023-05-09T08:27:20.455Z,3.73
2023-05-09T08:32:22.087Z,2.27
2023-05-09T08:37:23.758Z,2.70
2023-05-09T08:42:26.609Z,2.67
2023-05-09T08:47:29.378Z,2.28
2023-05-09T08:52:32.679Z,2.33
2023-05-09T08:57:37.463Z,2.05
2023-05-09T09:02:42.351Z,2.15
2023-05-09T09:07:45.136Z,1.90
2023-05-09T09:12:50.128Z,2.30
2023-05-09T09:17:56.755Z,2.50
2023-05-09T09:23:04.738Z,1.83
2023-05-09T09:28:06.544Z,2.47
2023-05-09T09:33:09.274Z,1.43
2023-05-09T09:38:11.055Z,1.67
2023-05-09T09:43:13.702Z,1.17
2023-05-09T09:48:15.410Z,1.10
2023-05-09T09:53:20.122Z,1.30
2023-05-09T09:58:27.572Z,1.70
2023-05-09T10:03:36.002Z,1.38
2023-05-09T10:08:37.791Z,1.40
2023-05-09T10:13:39.551Z,1.65
2023-05-09T10:18:42.985Z,2.15
2023-05-09T10:23:47.383Z,1.50
2023-05-09T10:28:49.925Z,2.90
2023-05-09T10:33:52.358Z,1.85
2023-05-09T10:38:55.264Z,1.70
2023-05-09T10:43:58.638Z,1.50
2023-05-09T10:49:01.342Z,1.42
2023-05-09T10:54:13.564Z,1.40
2023-05-09T10:59:37.919Z,1.55
2023-05-09T11:04:40.896Z,1.30
2023-05-09T11:09:42.543Z,0.98
2023-05-09T11:14:48.649Z,1.02
2023-05-09T11:19:50.406Z,1.10
2023-05-09T11:24:54.110Z,1.25
2023-05-09T11:29:58.781Z,0.85
2023-05-09T11:35:12.156Z,1.00
2023-05-09T11:40:16.054Z,0.85
2023-05-09T11:45:18.066Z,1.27
2023-05-09T11:50:20.352Z,0.90
2023-05-09T11:55:22.943Z,1.20
2023-05-09T12:00:25.987Z,1.15
2023-05-09T12:05:28.252Z,0.85
2023-05-09T12:10:31.025Z,1.20
2023-05-09T12:15:39.676Z,1.02
2023-05-09T12:20:48.450Z,1.67
2023-05-09T12:25:54.722Z,0.98
2023-05-09T12:30:56.689Z,1.30
2023-05-09T12:36:17.190Z,1.15
2023-05-09T12:41:34.905Z,1.20
2023-05-09T12:46:38.883Z,1.17
2023-05-09T12:51:51.088Z,1.35
2023-05-09T12:56:53.980Z,1.35
2023-05-09T13:02:00.583Z,1.05
2023-05-09T13:07:09.003Z,1.10
2023-05-09T13:12:10.611Z,1.33
2023-05-09T13:17:12.314Z,1.20
2023-05-09T13:22:14.086Z,1.83
2023-05-09T13:27:16.224Z,1.25
2023-05-09T13:32:17.949Z,1.13
2023-05-09T13:37:19.623Z,1.13
2023-05-09T13:42:21.480Z,1.05
2023-05-09T13:47:24.031Z,0.80
2023-05-09T13:52:25.757Z,1.60
2023-05-09T13:57:28.052Z,1.25
2023-05-09T14:02:29.732Z,1.15
2023-05-09T14:07:31.622Z,0.80
2023-05-09T14:12:33.363Z,1.33
2023-05-09T14:17:35.186Z,1.27
2023-05-09T14:22:37.061Z,1.20
2023-05-09T14:27:38.692Z,1.65
2023-05-09T14:32:40.482Z,2.10
2023-05-09T14:37:42.139Z,2.75
2023-05-09T14:42:44.908Z,2.55
2023-05-09T14:47:48.102Z,3.10
2023-05-09T14:52:51.605Z,2.83
2023-05-09T14:57:53.640Z,1.50
2023-05-09T15:02:55.925Z,1.00
2023-05-09T15:07:58.075Z,1.17
2023-05-09T15:13:00.537Z,1.53
2023-05-09T15:18:02.605Z,1.47
2023-05-09T15:23:04.256Z,1.60
2023-05-09T15:28:07.622Z,1.40
2023-05-09T15:33:09.379Z,1.50
2023-05-09T15:38:12.203Z,1.67
2023-05-09T15:43:13.811Z,1.80
2023-05-09T15:48:16.595Z,3.00
2023-05-09T15:53:18.181Z,3.07
2023-05-09T15:58:20.576Z,1.43
2023-05-09T16:03:23.269Z,1.70
2023-05-09T16:08:25.082Z,1.60
2023-05-09T16:13:26.817Z,1.77
2023-05-09T16:18:28.985Z,1.70
2023-05-09T16:23:30.737Z,1.50
2023-05-09T16:28:32.393Z,2.00
2023-05-09T16:33:34.831Z,1.73
2023-05-09T16:38:36.816Z,1.93
2023-05-09T16:43:38.456Z,1.90
2023-05-09T16:48:40.032Z,1.67
2023-05-09T16:53:42.053Z,2.23
2023-05-09T16:58:44.859Z,3.53
2023-05-09T17:03:46.583Z,2.90
2023-05-09T17:08:48.513Z,1.90
2023-05-09T17:13:50.346Z,1.90
2023-05-09T17:18:52.211Z,2.87
2023-05-09T17:23:54.069Z,3.07
2023-05-09T17:28:55.725Z,2.17
2023-05-09T17:33:57.422Z,2.00
2023-05-09T17:38:59.020Z,2.37
2023-05-09T17:44:00.947Z,1.97
2023-05-09T17:49:03.537Z,2.60
2023-05-09T17:54:05.618Z,2.13
2023-05-09T17:59:07.840Z,3.53
2023-05-09T18:04:09.536Z,2.73
2023-05-09T18:09:11.048Z,2.77
2023-05-09T18:14:13.013Z,3.47
2023-05-09T18:19:14.771Z,2.43
2023-05-09T18:24:17.127Z,3.93
2023-05-09T18:29:18.757Z,2.50
2023-05-09T18:34:20.426Z,2.80
2023-05-09T18:39:23.569Z,2.73
2023-05-09T18:44:25.235Z,2.57
2023-05-09T18:49:27.192Z,2.47
2023-05-09T18:54:28.853Z,2.50
2023-05-09T18:59:30.518Z,2.80
2023-05-09T19:04:32.306Z,3.57
2023-05-09T19:09:34.222Z,2.67
2023-05-09T19:14:38.508Z,3.20
2023-05-09T19:19:40.238Z,2.60
2023-05-09T19:24:42.454Z,2.73
2023-05-09T19:29:44.048Z,3.10
2023-05-09T19:34:45.746Z,2.80
2023-05-09T19:39:47.279Z,2.43
2023-05-09T19:44:48.978Z,2.90
2023-05-09T19:49:50.871Z,2.47
2023-05-09T19:54:52.614Z,2.40
2023-05-09T19:59:55.224Z,1.00
2023-05-09T20:04:56.929Z,0.83
2023-05-09T20:09:58.540Z,0.67
2023-05-09T20:15:01.012Z,0.73
2023-05-09T20:20:02.622Z,0.50
2023-05-09T20:25:05.263Z,0.70
2023-05-09T20:30:07.508Z,0.40
2023-05-09T20:35:09.693Z,0.33
2023-05-09T20:40:11.769Z,0.40
2023-05-09T20:45:13.506Z,0.43
2023-05-09T20:50:15.248Z,0.30
2023-05-09T20:55:17.077Z,0.20
2023-05-09T21:00:18.944Z,0.30
2023-05-09T21:05:20.837Z,0.37
2023-05-09T21:10:22.886Z,0.30
2023-05-09T21:15:24.810Z,0.40
2023-05-09T21:20:26.871Z,0.50
2023-05-09T21:25:29.062Z,0.50
2023-05-09T21:30:30.605Z,0.43
2023-05-09T21:35:32.229Z,0.30
2023-05-09T21:40:33.895Z,0.20
2023-05-09T21:45:35.750Z,0.53
2023-05-09T21:50:37.352Z,1.43
2023-05-09T21:55:39.154Z,0.30
2023-05-09T22:00:40.734Z,0.50
2023-05-09T22:05:42.416Z,0.30
2023-05-09T22:10:44.158Z,0.40
2023-05-09T22:15:45.867Z,0.40
2023-05-09T22:20:47.620Z,0.40
2023-05-09T22:25:49.809Z,0.50
2023-05-09T22:30:51.423Z,0.47
2023-05-09T22:35:53.179Z,0.53
2023-05-09T22:40:55.005Z,0.50
2023-05-09T22:45:56.919Z,0.60
2023-05-09T22:50:58.528Z,0.47
2023-05-09T22:56:00.228Z,0.50
2023-05-09T23:01:01.920Z,0.93
2023-05-09T23:06:03.777Z,0.50
2023-05-09T23:11:05.576Z,0.50
2023-05-09T23:16:07.392Z,0.50
2023-05-09T23:21:10.131Z,0.93
2023-05-09T23:26:11.868Z,0.53
2023-05-09T23:31:13.542Z,0.60
2023-05-09T23:36:15.295Z,0.50
2023-05-09T23:41:17.166Z,0.60
2023-05-09T23:46:18.978Z,0.70
2023-05-09T23:51:22.636Z,0.70
2023-05-09T23:56:25.327Z,0.60
